sensor_id;sensor_type;location;lat;lon;timestamp;temperature;humidity
69944;DHT22;57257;48.408;-4.498;2023-05-07T00:00:04;15.49;77.22
69944;DHT22;57257;48.408;-4.498;2023-05-07T00:02:33;15.49;77.22
69944;DHT22;57257;48.408;-4.498;2023-05-07T00:04:58;15.46;77.24
69944;DHT22;57257;48.408;-4.498;2023-05-07T00:07:24;15.44;77.25
69944;DHT22;57257;48.408;-4.498;2023-05-07T00:09:49;15.44;77.30
69944;DHT22;57257;48.408;-4.498;2023-05-07T00:12:15;15.39;77.25
69944;DHT22;57257;48.408;-4.498;2023-05-07T00:14:40;15.38;77.27
69944;DHT22;57257;48.408;-4.498;2023-05-07T00:17:06;15.35;77.30
69944;DHT22;57257;48.408;-4.498;2023-05-07T00:19:31;15.35;77.28
69944;DHT22;57257;48.408;-4.498;2023-05-07T00:21:57;15.33;77.37
69944;DHT22;57257;48.408;-4.498;2023-05-07T00:24:23;15.32;77.46
69944;DHT22;57257;48.408;-4.498;2023-05-07T00:26:49;15.33;77.50
69944;DHT22;57257;48.408;-4.498;2023-05-07T00:29:14;15.35;77.52
69944;DHT22;57257;48.408;-4.498;2023-05-07T00:31:40;15.32;77.36
69944;DHT22;57257;48.408;-4.498;2023-05-07T00:34:05;15.30;77.46
69944;DHT22;57257;48.408;-4.498;2023-05-07T00:36:31;15.30;77.58
69944;DHT22;57257;48.408;-4.498;2023-05-07T00:38:59;15.30;77.55
69944;DHT22;57257;48.408;-4.498;2023-05-07T00:41:25;15.32;77.56
69944;DHT22;57257;48.408;-4.498;2023-05-07T00:43:51;15.30;77.59
69944;DHT22;57257;48.408;-4.498;2023-05-07T00:46:20;15.32;77.56
69944;DHT22;57257;48.408;-4.498;2023-05-07T00:48:46;15.29;77.46
69944;DHT22;57257;48.408;-4.498;2023-05-07T00:51:12;15.30;77.50
69944;DHT22;57257;48.408;-4.498;2023-05-07T00:53:38;15.30;77.43
69944;DHT22;57257;48.408;-4.498;2023-05-07T00:56:04;15.30;77.49
69944;DHT22;57257;48.408;-4.498;2023-05-07T00:58:32;15.30;77.58
69944;DHT22;57257;48.408;-4.498;2023-05-07T01:00:57;15.30;77.54
69944;DHT22;57257;48.408;-4.498;2023-05-07T01:03:23;15.30;77.55
69944;DHT22;57257;48.408;-4.498;2023-05-07T01:05:49;15.29;77.48
69944;DHT22;57257;48.408;-4.498;2023-05-07T01:08:16;15.35;77.47
69944;DHT22;57257;48.408;-4.498;2023-05-07T01:10:43;15.28;77.32
69944;DHT22;57257;48.408;-4.498;2023-05-07T01:13:10;15.26;77.31
69944;DHT22;57257;48.408;-4.498;2023-05-07T01:15:36;15.25;77.29
69944;DHT22;57257;48.408;-4.498;2023-05-07T01:18:02;15.23;77.36
69944;DHT22;57257;48.408;-4.498;2023-05-07T01:20:28;15.23;77.33
69944;DHT22;57257;48.408;-4.498;2023-05-07T01:22:54;15.22;77.35
69944;DHT22;57257;48.408;-4.498;2023-05-07T01:25:20;15.22;77.27
69944;DHT22;57257;48.408;-4.498;2023-05-07T01:27:45;15.22;77.32
69944;DHT22;57257;48.408;-4.498;2023-05-07T01:30:11;15.22;77.32
69944;DHT22;57257;48.408;-4.498;2023-05-07T01:32:43;15.22;77.25
69944;DHT22;57257;48.408;-4.498;2023-05-07T01:35:12;15.19;77.30
69944;DHT22;57257;48.408;-4.498;2023-05-07T01:37:39;15.22;77.20
69944;DHT22;57257;48.408;-4.498;2023-05-07T01:40:05;15.18;77.27
69944;DHT22;57257;48.408;-4.498;2023-05-07T01:42:32;15.19;77.32
69944;DHT22;57257;48.408;-4.498;2023-05-07T01:44:58;15.18;77.29
69944;DHT22;57257;48.408;-4.498;2023-05-07T01:47:24;15.19;77.22
69944;DHT22;57257;48.408;-4.498;2023-05-07T01:49:50;15.16;77.14
69944;DHT22;57257;48.408;-4.498;2023-05-07T01:52:15;15.15;77.16
69944;DHT22;57257;48.408;-4.498;2023-05-07T01:54:41;15.15;77.14
69944;DHT22;57257;48.408;-4.498;2023-05-07T01:57:06;15.18;77.10
69944;DHT22;57257;48.408;-4.498;2023-05-07T01:59:32;15.16;77.16
69944;DHT22;57257;48.408;-4.498;2023-05-07T02:01:57;15.15;77.14
69944;DHT22;57257;48.408;-4.498;2023-05-07T02:04:22;15.15;77.08
69944;DHT22;57257;48.408;-4.498;2023-05-07T02:06:48;15.13;77.06
69944;DHT22;57257;48.408;-4.498;2023-05-07T02:09:13;15.12;77.16
69944;DHT22;57257;48.408;-4.498;2023-05-07T02:11:40;15.10;77.04
69944;DHT22;57257;48.408;-4.498;2023-05-07T02:14:05;15.10;76.99
69944;DHT22;57257;48.408;-4.498;2023-05-07T02:16:31;15.08;77.13
69944;DHT22;57257;48.408;-4.498;2023-05-07T02:18:56;15.09;77.27
69944;DHT22;57257;48.408;-4.498;2023-05-07T02:21:23;15.08;77.18
69944;DHT22;57257;48.408;-4.498;2023-05-07T02:23:48;15.08;77.21
69944;DHT22;57257;48.408;-4.498;2023-05-07T02:26:14;15.09;77.16
69944;DHT22;57257;48.408;-4.498;2023-05-07T02:28:39;15.09;77.19
69944;DHT22;57257;48.408;-4.498;2023-05-07T02:31:05;15.06;77.14
69944;DHT22;57257;48.408;-4.498;2023-05-07T02:33:30;15.13;77.14
69944;DHT22;57257;48.408;-4.498;2023-05-07T02:35:56;15.15;77.13
69944;DHT22;57257;48.408;-4.498;2023-05-07T02:38:22;15.15;77.10
69944;DHT22;57257;48.408;-4.498;2023-05-07T02:40:48;15.12;77.04
69944;DHT22;57257;48.408;-4.498;2023-05-07T02:43:13;15.12;77.00
69944;DHT22;57257;48.408;-4.498;2023-05-07T02:45:39;15.13;77.04
69944;DHT22;57257;48.408;-4.498;2023-05-07T02:48:05;15.13;77.03
69944;DHT22;57257;48.408;-4.498;2023-05-07T02:50:31;15.15;76.99
69944;DHT22;57257;48.408;-4.498;2023-05-07T02:52:57;15.15;76.93
69944;DHT22;57257;48.408;-4.498;2023-05-07T02:55:23;15.13;76.93
69944;DHT22;57257;48.408;-4.498;2023-05-07T02:57:48;15.13;76.87
69944;DHT22;57257;48.408;-4.498;2023-05-07T03:00:16;15.13;76.88
69944;DHT22;57257;48.408;-4.498;2023-05-07T03:02:41;15.15;76.84
69944;DHT22;57257;48.408;-4.498;2023-05-07T03:05:41;15.13;76.78
69944;DHT22;57257;48.408;-4.498;2023-05-07T03:08:07;15.13;76.78
69944;DHT22;57257;48.408;-4.498;2023-05-07T03:10:32;15.13;76.73
69944;DHT22;57257;48.408;-4.498;2023-05-07T03:12:58;15.13;76.72
69944;DHT22;57257;48.408;-4.498;2023-05-07T03:15:23;15.10;76.51
69944;DHT22;57257;48.408;-4.498;2023-05-07T03:17:49;15.05;76.52
69944;DHT22;57257;48.408;-4.498;2023-05-07T03:20:14;15.06;76.58
69944;DHT22;57257;48.408;-4.498;2023-05-07T03:22:40;15.06;76.55
69944;DHT22;57257;48.408;-4.498;2023-05-07T03:25:06;15.06;76.51
69944;DHT22;57257;48.408;-4.498;2023-05-07T03:27:32;15.10;76.53
69944;DHT22;57257;48.408;-4.498;2023-05-07T03:29:57;15.10;76.40
69944;DHT22;57257;48.408;-4.498;2023-05-07T03:32:23;15.10;76.46
69944;DHT22;57257;48.408;-4.498;2023-05-07T03:34:48;15.10;76.42
69944;DHT22;57257;48.408;-4.498;2023-05-07T03:37:13;15.09;76.40
69944;DHT22;57257;48.408;-4.498;2023-05-07T03:39:39;15.09;76.35
69944;DHT22;57257;48.408;-4.498;2023-05-07T03:42:04;15.09;76.20
69944;DHT22;57257;48.408;-4.498;2023-05-07T03:44:30;15.09;76.27
69944;DHT22;57257;48.408;-4.498;2023-05-07T03:46:55;15.08;76.12
69944;DHT22;57257;48.408;-4.498;2023-05-07T03:49:21;15.06;76.08
69944;DHT22;57257;48.408;-4.498;2023-05-07T03:51:46;15.05;76.07
69944;DHT22;57257;48.408;-4.498;2023-05-07T03:54:11;15.08;76.04
69944;DHT22;57257;48.408;-4.498;2023-05-07T03:56:37;15.08;76.08
69944;DHT22;57257;48.408;-4.498;2023-05-07T03:59:02;15.08;76.11
69944;DHT22;57257;48.408;-4.498;2023-05-07T04:01:28;15.06;76.10
69944;DHT22;57257;48.408;-4.498;2023-05-07T04:03:53;15.10;76.08
69944;DHT22;57257;48.408;-4.498;2023-05-07T04:06:19;15.09;76.08
69944;DHT22;57257;48.408;-4.498;2023-05-07T04:08:44;15.10;76.04
69944;DHT22;57257;48.408;-4.498;2023-05-07T04:11:10;15.10;75.99
69944;DHT22;57257;48.408;-4.498;2023-05-07T04:13:35;15.09;75.95
69944;DHT22;57257;48.408;-4.498;2023-05-07T04:16:02;15.08;75.94
69944;DHT22;57257;48.408;-4.498;2023-05-07T04:18:28;15.09;75.84
69944;DHT22;57257;48.408;-4.498;2023-05-07T04:20:54;15.09;75.83
69944;DHT22;57257;48.408;-4.498;2023-05-07T04:23:19;15.08;75.81
69944;DHT22;57257;48.408;-4.498;2023-05-07T04:25:44;15.09;75.76
69944;DHT22;57257;48.408;-4.498;2023-05-07T04:28:10;15.08;75.72
69944;DHT22;57257;48.408;-4.498;2023-05-07T04:30:36;15.06;75.74
69944;DHT22;57257;48.408;-4.498;2023-05-07T04:33:02;15.06;75.72
69944;DHT22;57257;48.408;-4.498;2023-05-07T04:35:27;15.06;75.67
69944;DHT22;57257;48.408;-4.498;2023-05-07T04:37:53;15.02;75.62
69944;DHT22;57257;48.408;-4.498;2023-05-07T04:40:18;15.01;75.66
69944;DHT22;57257;48.408;-4.498;2023-05-07T04:42:44;14.99;75.70
69944;DHT22;57257;48.408;-4.498;2023-05-07T04:45:09;14.96;75.71
69944;DHT22;57257;48.408;-4.498;2023-05-07T04:47:36;14.98;75.65
69944;DHT22;57257;48.408;-4.498;2023-05-07T04:50:01;14.95;75.65
69944;DHT22;57257;48.408;-4.498;2023-05-07T04:52:27;14.93;75.71
69944;DHT22;57257;48.408;-4.498;2023-05-07T04:54:52;14.96;75.60
69944;DHT22;57257;48.408;-4.498;2023-05-07T04:57:18;14.93;75.61
69944;DHT22;57257;48.408;-4.498;2023-05-07T04:59:44;14.92;75.58
69944;DHT22;57257;48.408;-4.498;2023-05-07T05:02:10;14.89;75.59
69944;DHT22;57257;48.408;-4.498;2023-05-07T05:04:36;14.89;75.64
69944;DHT22;57257;48.408;-4.498;2023-05-07T05:07:02;14.91;75.64
69944;DHT22;57257;48.408;-4.498;2023-05-07T05:09:29;14.89;75.52
69944;DHT22;57257;48.408;-4.498;2023-05-07T05:11:54;14.89;75.49
69944;DHT22;57257;48.408;-4.498;2023-05-07T05:14:20;14.91;75.59
69944;DHT22;57257;48.408;-4.498;2023-05-07T05:16:45;14.88;75.51
69944;DHT22;57257;48.408;-4.498;2023-05-07T05:19:11;14.88;75.63
69944;DHT22;57257;48.408;-4.498;2023-05-07T05:21:36;14.88;75.68
69944;DHT22;57257;48.408;-4.498;2023-05-07T05:24:01;14.88;75.63
69944;DHT22;57257;48.408;-4.498;2023-05-07T05:26:27;14.91;75.52
69944;DHT22;57257;48.408;-4.498;2023-05-07T05:28:52;14.91;75.58
69944;DHT22;57257;48.408;-4.498;2023-05-07T05:31:18;14.92;75.52
69944;DHT22;57257;48.408;-4.498;2023-05-07T05:33:43;14.93;75.46
69944;DHT22;57257;48.408;-4.498;2023-05-07T05:36:09;14.96;75.47
69944;DHT22;57257;48.408;-4.498;2023-05-07T05:38:35;14.98;75.31
69944;DHT22;57257;48.408;-4.498;2023-05-07T05:41:00;14.99;75.24
69944;DHT22;57257;48.408;-4.498;2023-05-07T05:43:26;15.02;75.20
69944;DHT22;57257;48.408;-4.498;2023-05-07T05:45:51;15.03;75.03
69944;DHT22;57257;48.408;-4.498;2023-05-07T05:48:17;15.05;75.03
69944;DHT22;57257;48.408;-4.498;2023-05-07T05:50:42;15.06;74.76
69944;DHT22;57257;48.408;-4.498;2023-05-07T05:53:08;15.08;74.74
69944;DHT22;57257;48.408;-4.498;2023-05-07T05:55:33;15.13;74.67
69944;DHT22;57257;48.408;-4.498;2023-05-07T05:58:00;15.12;74.54
69944;DHT22;57257;48.408;-4.498;2023-05-07T06:00:25;15.13;74.40
69944;DHT22;57257;48.408;-4.498;2023-05-07T06:02:51;15.16;74.39
69944;DHT22;57257;48.408;-4.498;2023-05-07T06:05:17;15.19;74.44
69944;DHT22;57257;48.408;-4.498;2023-05-07T06:07:42;15.23;74.34
69944;DHT22;57257;48.408;-4.498;2023-05-07T06:10:08;15.28;74.21
69944;DHT22;57257;48.408;-4.498;2023-05-07T06:12:33;15.30;74.27
69944;DHT22;57257;48.408;-4.498;2023-05-07T06:14:58;15.32;74.14
69944;DHT22;57257;48.408;-4.498;2023-05-07T06:17:24;15.35;74.20
69944;DHT22;57257;48.408;-4.498;2023-05-07T06:19:49;15.39;74.08
69944;DHT22;57257;48.408;-4.498;2023-05-07T06:22:15;15.39;74.07
69944;DHT22;57257;48.408;-4.498;2023-05-07T06:24:40;15.42;74.04
69944;DHT22;57257;48.408;-4.498;2023-05-07T06:27:06;15.42;73.86
69944;DHT22;57257;48.408;-4.498;2023-05-07T06:29:31;15.43;73.82
69944;DHT22;57257;48.408;-4.498;2023-05-07T06:32:09;15.46;73.51
69944;DHT22;57257;48.408;-4.498;2023-05-07T06:34:35;15.44;73.40
69944;DHT22;57257;48.408;-4.498;2023-05-07T06:37:00;15.46;73.49
69944;DHT22;57257;48.408;-4.498;2023-05-07T06:39:26;15.46;73.24
69944;DHT22;57257;48.408;-4.498;2023-05-07T06:41:51;15.44;73.19
69944;DHT22;57257;48.408;-4.498;2023-05-07T06:44:17;15.49;73.26
69944;DHT22;57257;48.408;-4.498;2023-05-07T06:46:42;15.49;72.97
69944;DHT22;57257;48.408;-4.498;2023-05-07T06:49:08;15.52;73.05
69944;DHT22;57257;48.408;-4.498;2023-05-07T06:51:33;15.52;72.95
69944;DHT22;57257;48.408;-4.498;2023-05-07T06:53:59;15.53;72.81
69944;DHT22;57257;48.408;-4.498;2023-05-07T06:56:24;15.57;72.60
69944;DHT22;57257;48.408;-4.498;2023-05-07T06:58:50;15.60;72.45
69944;DHT22;57257;48.408;-4.498;2023-05-07T07:01:15;15.62;72.48
69944;DHT22;57257;48.408;-4.498;2023-05-07T07:03:41;15.63;72.19
69944;DHT22;57257;48.408;-4.498;2023-05-07T07:06:06;15.64;72.13
69944;DHT22;57257;48.408;-4.498;2023-05-07T07:08:32;15.66;71.64
69944;DHT22;57257;48.408;-4.498;2023-05-07T07:10:57;15.69;71.56
69944;DHT22;57257;48.408;-4.498;2023-05-07T07:13:23;15.71;71.74
69944;DHT22;57257;48.408;-4.498;2023-05-07T07:15:48;15.76;71.62
69944;DHT22;57257;48.408;-4.498;2023-05-07T07:18:14;15.77;71.60
69944;DHT22;57257;48.408;-4.498;2023-05-07T07:20:40;15.86;71.49
69944;DHT22;57257;48.408;-4.498;2023-05-07T07:23:05;15.91;71.44
69944;DHT22;57257;48.408;-4.498;2023-05-07T07:25:31;15.98;71.40
69944;DHT22;57257;48.408;-4.498;2023-05-07T07:27:57;16.00;70.91
69944;DHT22;57257;48.408;-4.498;2023-05-07T07:30:22;16.04;70.81
69944;DHT22;57257;48.408;-4.498;2023-05-07T07:32:47;16.13;70.82
69944;DHT22;57257;48.408;-4.498;2023-05-07T07:35:13;16.21;70.39
69944;DHT22;57257;48.408;-4.498;2023-05-07T07:37:38;16.24;70.27
69944;DHT22;57257;48.408;-4.498;2023-05-07T07:40:04;16.24;69.47
69944;DHT22;57257;48.408;-4.498;2023-05-07T07:42:30;16.27;69.90
69944;DHT22;57257;48.408;-4.498;2023-05-07T07:44:55;16.29;69.64
69944;DHT22;57257;48.408;-4.498;2023-05-07T07:47:22;16.32;69.98
69944;DHT22;57257;48.408;-4.498;2023-05-07T07:49:47;16.34;69.27
69944;DHT22;57257;48.408;-4.498;2023-05-07T07:52:13;16.42;69.61
69944;DHT22;57257;48.408;-4.498;2023-05-07T07:54:38;16.45;69.22
69944;DHT22;57257;48.408;-4.498;2023-05-07T07:57:03;16.55;69.50
69944;DHT22;57257;48.408;-4.498;2023-05-07T07:59:29;16.61;69.23
69944;DHT22;57257;48.408;-4.498;2023-05-07T08:01:55;16.68;68.93
69944;DHT22;57257;48.408;-4.498;2023-05-07T08:04:22;16.68;68.83
69944;DHT22;57257;48.408;-4.498;2023-05-07T08:06:47;16.73;68.63
69944;DHT22;57257;48.408;-4.498;2023-05-07T08:09:12;16.79;68.48
69944;DHT22;57257;48.408;-4.498;2023-05-07T08:11:38;16.81;68.55
69944;DHT22;57257;48.408;-4.498;2023-05-07T08:14:04;16.79;68.18
69944;DHT22;57257;48.408;-4.498;2023-05-07T08:16:30;16.76;68.44
69944;DHT22;57257;48.408;-4.498;2023-05-07T08:18:55;16.75;68.35
69944;DHT22;57257;48.408;-4.498;2023-05-07T08:21:22;16.82;68.43
69944;DHT22;57257;48.408;-4.498;2023-05-07T08:23:48;16.93;68.40
69944;DHT22;57257;48.408;-4.498;2023-05-07T08:26:13;17.09;68.72
69944;DHT22;57257;48.408;-4.498;2023-05-07T08:28:39;17.26;68.45
69944;DHT22;57257;48.408;-4.498;2023-05-07T08:31:05;17.54;68.34
69944;DHT22;57257;48.408;-4.498;2023-05-07T08:33:30;17.84;67.05
69944;DHT22;57257;48.408;-4.498;2023-05-07T08:35:56;18.08;66.81
69944;DHT22;57257;48.408;-4.498;2023-05-07T08:38:21;18.28;66.19
69944;DHT22;57257;48.408;-4.498;2023-05-07T08:40:47;18.27;65.22
69944;DHT22;57257;48.408;-4.498;2023-05-07T08:43:13;18.27;65.47
69944;DHT22;57257;48.408;-4.498;2023-05-07T08:45:40;18.22;65.33
69944;DHT22;57257;48.408;-4.498;2023-05-07T08:48:09;18.15;65.01
69944;DHT22;57257;48.408;-4.498;2023-05-07T08:50:38;18.17;65.32
69944;DHT22;57257;48.408;-4.498;2023-05-07T08:53:04;18.14;64.77
69944;DHT22;57257;48.408;-4.498;2023-05-07T08:55:30;18.09;65.11
69944;DHT22;57257;48.408;-4.498;2023-05-07T08:57:55;18.05;64.79
69944;DHT22;57257;48.408;-4.498;2023-05-07T09:00:21;18.00;64.33
69944;DHT22;57257;48.408;-4.498;2023-05-07T09:02:46;18.01;64.44
69944;DHT22;57257;48.408;-4.498;2023-05-07T09:05:12;18.02;64.07
69944;DHT22;57257;48.408;-4.498;2023-05-07T09:07:37;18.00;63.79
69944;DHT22;57257;48.408;-4.498;2023-05-07T09:10:04;18.02;63.93
69944;DHT22;57257;48.408;-4.498;2023-05-07T09:12:30;18.04;63.79
69944;DHT22;57257;48.408;-4.498;2023-05-07T09:14:56;18.08;63.90
69944;DHT22;57257;48.408;-4.498;2023-05-07T09:17:21;18.07;63.28
69944;DHT22;57257;48.408;-4.498;2023-05-07T09:19:47;18.05;63.14
69944;DHT22;57257;48.408;-4.498;2023-05-07T09:22:13;18.11;63.44
69944;DHT22;57257;48.408;-4.498;2023-05-07T09:24:38;18.15;63.75
69944;DHT22;57257;48.408;-4.498;2023-05-07T09:27:05;18.14;63.51
69944;DHT22;57257;48.408;-4.498;2023-05-07T09:29:31;18.17;63.00
69944;DHT22;57257;48.408;-4.498;2023-05-07T09:32:06;18.19;63.14
69944;DHT22;57257;48.408;-4.498;2023-05-07T09:34:32;18.25;63.30
69944;DHT22;57257;48.408;-4.498;2023-05-07T09:37:05;18.28;63.13
69944;DHT22;57257;48.408;-4.498;2023-05-07T09:39:46;18.28;62.68
69944;DHT22;57257;48.408;-4.498;2023-05-07T09:42:12;18.35;62.77
69944;DHT22;57257;48.408;-4.498;2023-05-07T09:44:40;18.32;62.53
69944;DHT22;57257;48.408;-4.498;2023-05-07T09:47:07;18.35;62.59
69944;DHT22;57257;48.408;-4.498;2023-05-07T09:49:36;18.32;62.40
69944;DHT22;57257;48.408;-4.498;2023-05-07T09:52:04;18.35;62.02
69944;DHT22;57257;48.408;-4.498;2023-05-07T09:54:32;18.38;61.84
69944;DHT22;57257;48.408;-4.498;2023-05-07T09:57:01;18.44;62.03
69944;DHT22;57257;48.408;-4.498;2023-05-07T09:59:27;18.55;62.11
69944;DHT22;57257;48.408;-4.498;2023-05-07T10:01:56;18.65;61.82
69944;DHT22;57257;48.408;-4.498;2023-05-07T10:04:22;18.82;61.39
69944;DHT22;57257;48.408;-4.498;2023-05-07T10:06:48;18.99;61.45
69944;DHT22;57257;48.408;-4.498;2023-05-07T10:09:14;19.04;60.41
69944;DHT22;57257;48.408;-4.498;2023-05-07T10:11:40;19.16;60.91
69944;DHT22;57257;48.408;-4.498;2023-05-07T10:14:07;19.20;60.07
69944;DHT22;57257;48.408;-4.498;2023-05-07T10:16:35;19.17;59.93
69944;DHT22;57257;48.408;-4.498;2023-05-07T10:19:05;19.20;60.28
69944;DHT22;57257;48.408;-4.498;2023-05-07T10:21:34;19.24;60.46
69944;DHT22;57257;48.408;-4.498;2023-05-07T10:24:22;19.19;59.79
69944;DHT22;57257;48.408;-4.498;2023-05-07T10:26:52;19.20;60.27
69944;DHT22;57257;48.408;-4.498;2023-05-07T10:34:21;19.12;59.44
69944;DHT22;57257;48.408;-4.498;2023-05-07T10:36:48;19.16;59.72
69944;DHT22;57257;48.408;-4.498;2023-05-07T10:39:14;19.16;59.79
69944;DHT22;57257;48.408;-4.498;2023-05-07T10:41:40;19.16;59.60
69944;DHT22;57257;48.408;-4.498;2023-05-07T10:44:05;19.26;59.70
69944;DHT22;57257;48.408;-4.498;2023-05-07T10:46:31;19.30;59.43
69944;DHT22;57257;48.408;-4.498;2023-05-07T10:51:26;19.46;58.92
69944;DHT22;57257;48.408;-4.498;2023-05-07T10:56:42;19.53;58.74
69944;DHT22;57257;48.408;-4.498;2023-05-07T11:04:24;19.50;58.72
69944;DHT22;57257;48.408;-4.498;2023-05-07T11:12:16;19.30;59.13
69944;DHT22;57257;48.408;-4.498;2023-05-07T11:17:08;19.30;59.07
69944;DHT22;57257;48.408;-4.498;2023-05-07T11:19:53;19.33;58.84
69944;DHT22;57257;48.408;-4.498;2023-05-07T11:25:02;19.31;59.54
69944;DHT22;57257;48.408;-4.498;2023-05-07T11:27:28;19.30;59.79
69944;DHT22;57257;48.408;-4.498;2023-05-07T11:29:54;19.31;60.14
69944;DHT22;57257;48.408;-4.498;2023-05-07T11:32:26;19.36;60.32
69944;DHT22;57257;48.408;-4.498;2023-05-07T11:34:52;19.46;60.29
69944;DHT22;57257;48.408;-4.498;2023-05-07T11:37:19;19.63;60.43
69944;DHT22;57257;48.408;-4.498;2023-05-07T11:39:45;19.82;60.26
69944;DHT22;57257;48.408;-4.498;2023-05-07T11:42:34;19.85;59.21
69944;DHT22;57257;48.408;-4.498;2023-05-07T11:45:00;19.71;58.79
69944;DHT22;57257;48.408;-4.498;2023-05-07T11:47:26;19.53;58.86
69944;DHT22;57257;48.408;-4.498;2023-05-07T11:49:54;19.37;59.06
69944;DHT22;57257;48.408;-4.498;2023-05-07T11:52:22;19.28;59.65
69944;DHT22;57257;48.408;-4.498;2023-05-07T11:54:54;19.22;60.11
69944;DHT22;57257;48.408;-4.498;2023-05-07T11:57:21;19.10;59.67
69944;DHT22;57257;48.408;-4.498;2023-05-07T11:59:46;18.98;59.97
69944;DHT22;57257;48.408;-4.498;2023-05-07T12:02:15;18.81;60.07
69944;DHT22;57257;48.408;-4.498;2023-05-07T12:05:09;18.52;60.49
69944;DHT22;57257;48.408;-4.498;2023-05-07T12:07:34;18.35;61.32
69944;DHT22;57257;48.408;-4.498;2023-05-07T12:10:06;18.34;61.51
69944;DHT22;57257;48.408;-4.498;2023-05-07T12:12:40;18.27;61.65
69944;DHT22;57257;48.408;-4.498;2023-05-07T12:15:07;18.22;61.50
69944;DHT22;57257;48.408;-4.498;2023-05-07T12:17:33;18.05;61.52
69944;DHT22;57257;48.408;-4.498;2023-05-07T12:20:00;17.80;62.06
69944;DHT22;57257;48.408;-4.498;2023-05-07T12:22:26;17.74;62.62
69944;DHT22;57257;48.408;-4.498;2023-05-07T12:24:58;17.74;62.95
69944;DHT22;57257;48.408;-4.498;2023-05-07T12:27:25;17.80;62.90
69944;DHT22;57257;48.408;-4.498;2023-05-07T12:29:51;17.76;62.82
69944;DHT22;57257;48.408;-4.498;2023-05-07T12:32:18;17.73;63.18
69944;DHT22;57257;48.408;-4.498;2023-05-07T12:34:44;17.76;63.18
69944;DHT22;57257;48.408;-4.498;2023-05-07T12:37:10;17.81;62.70
69944;DHT22;57257;48.408;-4.498;2023-05-07T12:39:36;17.74;62.89
69944;DHT22;57257;48.408;-4.498;2023-05-07T12:42:01;17.73;63.07
69944;DHT22;57257;48.408;-4.498;2023-05-07T12:44:32;17.60;63.36
69944;DHT22;57257;48.408;-4.498;2023-05-07T12:46:58;17.59;63.74
69944;DHT22;57257;48.408;-4.498;2023-05-07T12:49:23;17.59;63.86
69944;DHT22;57257;48.408;-4.498;2023-05-07T12:51:50;17.53;64.00
69944;DHT22;57257;48.408;-4.498;2023-05-07T12:57:06;17.46;64.46
69944;DHT22;57257;48.408;-4.498;2023-05-07T12:59:41;17.47;64.53
69944;DHT22;57257;48.408;-4.498;2023-05-07T13:02:08;17.44;64.54
69944;DHT22;57257;48.408;-4.498;2023-05-07T13:04:34;17.49;64.76
69944;DHT22;57257;48.408;-4.498;2023-05-07T13:07:01;17.54;64.54
69944;DHT22;57257;48.408;-4.498;2023-05-07T13:09:26;17.53;64.70
69944;DHT22;57257;48.408;-4.498;2023-05-07T13:11:53;17.57;64.63
69944;DHT22;57257;48.408;-4.498;2023-05-07T13:14:19;17.54;64.46
69944;DHT22;57257;48.408;-4.498;2023-05-07T13:16:48;17.53;64.15
69944;DHT22;57257;48.408;-4.498;2023-05-07T13:19:14;17.50;64.47
69944;DHT22;57257;48.408;-4.498;2023-05-07T13:21:39;17.66;64.62
69944;DHT22;57257;48.408;-4.498;2023-05-07T13:24:05;17.81;64.46
69944;DHT22;57257;48.408;-4.498;2023-05-07T13:26:31;17.97;64.19
69944;DHT22;57257;48.408;-4.498;2023-05-07T13:28:56;18.11;63.80
69944;DHT22;57257;48.408;-4.498;2023-05-07T13:31:22;18.28;63.50
69944;DHT22;57257;48.408;-4.498;2023-05-07T13:33:47;18.47;63.36
69944;DHT22;57257;48.408;-4.498;2023-05-07T13:36:13;18.62;62.94
69944;DHT22;57257;48.408;-4.498;2023-05-07T13:38:39;18.76;62.80
69944;DHT22;57257;48.408;-4.498;2023-05-07T13:41:05;18.86;62.30
69944;DHT22;57257;48.408;-4.498;2023-05-07T13:43:30;18.95;62.33
69944;DHT22;57257;48.408;-4.498;2023-05-07T13:45:57;19.06;61.85
69944;DHT22;57257;48.408;-4.498;2023-05-07T13:48:22;19.10;61.56
69944;DHT22;57257;48.408;-4.498;2023-05-07T13:50:47;19.22;61.67
69944;DHT22;57257;48.408;-4.498;2023-05-07T13:53:13;19.34;61.37
69944;DHT22;57257;48.408;-4.498;2023-05-07T13:55:40;19.56;61.40
69944;DHT22;57257;48.408;-4.498;2023-05-07T13:58:06;19.66;60.14
69944;DHT22;57257;48.408;-4.498;2023-05-07T14:00:31;19.57;60.26
69944;DHT22;57257;48.408;-4.498;2023-05-07T14:02:57;19.51;60.64
69944;DHT22;57257;48.408;-4.498;2023-05-07T14:05:22;19.54;60.93
69944;DHT22;57257;48.408;-4.498;2023-05-07T14:07:51;19.51;60.82
69944;DHT22;57257;48.408;-4.498;2023-05-07T14:10:17;19.51;60.74
69944;DHT22;57257;48.408;-4.498;2023-05-07T14:12:44;19.40;60.76
69944;DHT22;57257;48.408;-4.498;2023-05-07T14:15:10;19.31;61.06
69944;DHT22;57257;48.408;-4.498;2023-05-07T14:17:35;19.31;61.42
69944;DHT22;57257;48.408;-4.498;2023-05-07T14:20:01;19.38;61.30
69944;DHT22;57257;48.408;-4.498;2023-05-07T14:22:26;19.43;61.09
69944;DHT22;57257;48.408;-4.498;2023-05-07T14:24:52;19.36;60.83
69944;DHT22;57257;48.408;-4.498;2023-05-07T14:27:17;19.27;61.00
69944;DHT22;57257;48.408;-4.498;2023-05-07T14:29:43;19.26;61.36
69944;DHT22;57257;48.408;-4.498;2023-05-07T14:32:08;19.26;61.43
69944;DHT22;57257;48.408;-4.498;2023-05-07T14:34:34;19.22;61.31
69944;DHT22;57257;48.408;-4.498;2023-05-07T14:37:00;19.20;61.59
69944;DHT22;57257;48.408;-4.498;2023-05-07T14:39:26;19.14;61.59
69944;DHT22;57257;48.408;-4.498;2023-05-07T14:41:52;19.13;61.75
69944;DHT22;57257;48.408;-4.498;2023-05-07T14:44:20;19.07;61.64
69944;DHT22;57257;48.408;-4.498;2023-05-07T14:46:45;19.09;61.93
69944;DHT22;57257;48.408;-4.498;2023-05-07T14:49:13;19.14;61.80
69944;DHT22;57257;48.408;-4.498;2023-05-07T14:51:43;19.27;61.60
69944;DHT22;57257;48.408;-4.498;2023-05-07T14:54:09;19.40;61.14
69944;DHT22;57257;48.408;-4.498;2023-05-07T14:56:34;19.47;61.16
69944;DHT22;57257;48.408;-4.498;2023-05-07T14:59:02;19.47;60.93
69944;DHT22;57257;48.408;-4.498;2023-05-07T15:01:28;19.49;60.98
69944;DHT22;57257;48.408;-4.498;2023-05-07T15:03:53;19.38;60.90
69944;DHT22;57257;48.408;-4.498;2023-05-07T15:06:18;19.30;61.01
69944;DHT22;57257;48.408;-4.498;2023-05-07T15:08:44;19.22;61.25
69944;DHT22;57257;48.408;-4.498;2023-05-07T15:11:09;19.16;61.75
69944;DHT22;57257;48.408;-4.498;2023-05-07T15:13:35;19.14;61.89
69944;DHT22;57257;48.408;-4.498;2023-05-07T15:16:00;19.22;61.92
69944;DHT22;57257;48.408;-4.498;2023-05-07T15:18:26;19.26;61.92
69944;DHT22;57257;48.408;-4.498;2023-05-07T15:20:51;19.40;62.19
69944;DHT22;57257;48.408;-4.498;2023-05-07T15:23:17;19.80;61.89
69944;DHT22;57257;48.408;-4.498;2023-05-07T15:25:42;20.12;61.13
69944;DHT22;57257;48.408;-4.498;2023-05-07T15:28:08;20.42;59.66
69944;DHT22;57257;48.408;-4.498;2023-05-07T15:30:33;20.72;58.34
69944;DHT22;57257;48.408;-4.498;2023-05-07T15:32:59;20.97;58.03
69944;DHT22;57257;48.408;-4.498;2023-05-07T15:35:25;21.24;57.61
69944;DHT22;57257;48.408;-4.498;2023-05-07T15:37:51;21.34;56.46